aviador You're here:

LFML Decoded Metar

MARSEILLE in FRANCE
Report Time2017-12-11 22:30:00
UTC Time2017-12-11 22:55:01
Flight Rules mvfr MVFR
Wind100° at 05 kt
W.Decomp.*RWY 13: 4.3 kt HW 2.6 kt LCW
W.Rank100° ranks 18
Current wind is below 100° avg. (6.9)
Visibility9999 m
Phenomena:N/A
Clouds:Broken 024 Hf
Broken 130 Hf
Expected CloudBase > 800 ft AGL from Temp-Dew spread
Ceiling2,400 ft
Temp07°C (ISA -8)
Dew Point05°C (87% RH)
AAT4.1°C
QNH1001 hPa
Density Alt-289 ft
Elevation118 ft
Report Wrong Elevation
Raw Report
LFML 112230Z AUTO 10005KT 9999 BKN024 BKN130 07/05 Q1001 NOSIG=

Extra information for LFML:More info

Metar Taf Metar & Taf Last 4 Metars F.Rules Stats Wind Profile Meteogram Temp Stats Airport Information Weather charts Add Link Nearby VenuesMetar ALERT Operation Metar Decoded Social comments